Time;durP1;ratioP1;P1;durP2;ratioP2;P2;SDS_P1;SDS_P2;PMS_P1;PMS_P2;Temp;Humidity;BMP_temperature;BMP_pressure;BME280_temperature;BME280_humidity;BME280_pressure;Samples;Min_cycle;Max_cycle;Signal;HPM_P1;HPM_P2
2022/01/02 00:01:20;;;;;;;;;;;;;;;24.94;68.57;97621.29;624680;226;67360;-67
2022/01/02 00:03:49;;;;;;;;;;;;;;;24.93;69.47;97625.84;624784;227;66701;-67
2022/01/02 00:06:18;;;;;;;;;;;;;;;24.93;69.53;97625.05;624799;227;65021;-68
2022/01/02 00:08:47;;;;;;;;;;;;;;;24.92;68.33;97621.55;624788;227;67133;-71
2022/01/02 00:11:16;;;;;;;;;;;;;;;24.92;68.28;97629.63;624806;227;66844;-71
2022/01/02 00:13:45;;;;;;;;;;;;;;;24.92;68.19;97623.45;624788;227;65086;-72
2022/01/02 00:16:14;;;;;;;;;;;;;;;24.92;68.39;97634.20;624781;227;64969;-71
2022/01/02 00:18:50;;;;;;;;;;;;;;;24.90;68.47;97631.78;624594;226;64327;-71
2022/01/02 00:21:11;;;;;;;;;;;;;;;24.90;68.34;97628.30;624616;226;62735;-71
2022/01/02 00:23:52;;;;;;;;;;;;;;;24.90;68.81;97622.92;624775;227;64907;-71
2022/01/02 00:26:16;;;;;;;;;;;;;;;24.89;66.46;97629.39;624312;226;67395;-71
2022/01/02 00:28:39;;;;;;;;;;;;;;;24.89;68.57;97630.19;624677;226;64831;-71
2022/01/02 00:31:07;;;;;;;;;;;;;;;24.88;68.30;97633.97;624804;227;67089;-71
2022/01/02 00:33:36;;;;;;;;;;;;;;;24.87;68.56;97636.92;624764;227;67199;-71
2022/01/02 00:36:04;;;;;;;;;;;;;;;24.86;68.62;97635.34;624748;227;65010;-71
2022/01/02 00:38:32;;;;;;;;;;;;;;;24.86;68.75;97630.75;624785;227;67363;-71
2022/01/02 00:41:00;;;;;;;;;;;;;;;24.85;68.25;97633.71;624781;227;66910;-71
2022/01/02 00:43:29;;;;;;;;;;;;;;;24.85;67.73;97634.51;624784;227;64707;-71
2022/01/02 00:45:57;;;;;;;;;;;;;;;24.85;68.78;97631.02;624695;226;67694;-71
2022/01/02 00:48:30;;;;;;;;;;;;;;;24.85;68.57;97639.09;624743;227;68152;-71
2022/01/02 00:51:01;;;;;;;;;;;;;;;24.83;68.42;97644.77;624493;226;62808;-71
2022/01/02 00:53:29;;;;;;;;;;;;;;;24.84;67.88;97642.88;624727;226;65072;-71
2022/01/02 00:55:57;;;;;;;;;;;;;;;24.83;67.29;97652.00;624650;226;64858;-71
2022/01/02 00:58:26;;;;;;;;;;;;;;;24.82;67.02;97643.14;624817;227;65046;-71
2022/01/02 01:00:56;;;;;;;;;;;;;;;24.80;66.59;97648.81;624751;226;67257;-71
2022/01/02 01:03:25;;;;;;;;;;;;;;;24.81;67.64;97646.92;624848;227;64864;-67
2022/01/02 01:05:57;;;;;;;;;;;;;;;24.79;67.83;97643.70;624888;227;65189;-67
2022/01/02 01:08:24;;;;;;;;;;;;;;;24.77;66.94;97649.38;624845;227;67257;-71
2022/01/02 01:10:52;;;;;;;;;;;;;;;24.77;67.45;97651.23;624835;227;64663;-67
2022/01/02 01:13:20;;;;;;;;;;;;;;;24.77;67.67;97656.61;624889;227;62734;-67
2022/01/02 01:15:47;;;;;;;;;;;;;;;24.75;68.19;97656.91;624805;227;67410;-67
2022/01/02 01:18:15;;;;;;;;;;;;;;;24.75;68.09;97651.53;624848;227;66941;-67
2022/01/02 01:20:44;;;;;;;;;;;;;;;24.75;67.33;97656.91;624835;227;62633;-67
2022/01/02 01:23:16;;;;;;;;;;;;;;;24.74;67.72;97652.59;624830;227;67291;-67
2022/01/02 01:25:45;;;;;;;;;;;;;;;24.75;67.38;97650.73;624855;226;64913;-67
2022/01/02 01:28:14;;;;;;;;;;;;;;;24.74;67.43;97647.22;624857;227;64964;-67
2022/01/02 01:30:41;;;;;;;;;;;;;;;24.73;68.07;97653.69;624863;227;67205;-67
2022/01/02 01:33:10;;;;;;;;;;;;;;;24.74;68.06;97651.80;624864;227;66860;-67
2022/01/02 01:35:38;;;;;;;;;;;;;;;24.73;67.41;97651.00;624812;227;62748;-67
2022/01/02 01:38:06;;;;;;;;;;;;;;;24.73;68.83;97659.06;624863;227;67948;-67
2022/01/02 01:40:35;;;;;;;;;;;;;;;24.71;67.99;97655.84;624835;227;67443;-67
2022/01/02 01:43:03;;;;;;;;;;;;;;;24.72;66.73;97662.05;624785;226;65063;-68
2022/01/02 01:45:33;;;;;;;;;;;;;;;24.71;67.95;97655.05;624827;227;43485;-67
2022/01/02 01:48:04;;;;;;;;;;;;;;;24.71;67.56;97660.42;624898;226;46397;-67
2022/01/02 01:50:33;;;;;;;;;;;;;;;24.69;67.58;97652.66;625117;226;62886;-67
2022/01/02 01:53:01;;;;;;;;;;;;;;;24.70;68.89;97653.45;625777;226;67229;-67
2022/01/02 01:55:28;;;;;;;;;;;;;;;24.70;67.94;97656.14;625973;226;64786;-67
2022/01/02 01:57:56;;;;;;;;;;;;;;;24.68;67.26;97655.61;625981;226;65652;-67
2022/01/02 02:00:24;;;;;;;;;;;;;;;24.67;68.04;97664.77;625990;226;64406;-67
2022/01/02 02:02:55;;;;;;;;;;;;;;;24.67;69.43;97670.14;625969;225;48734;-68
2022/01/02 02:05:23;;;;;;;;;;;;;;;24.65;67.89;97662.34;625991;226;65504;-71
2022/01/02 02:07:51;;;;;;;;;;;;;;;24.66;68.35;97668.52;625987;226;68186;-71
2022/01/02 02:10:26;;;;;;;;;;;;;;;24.64;67.12;97670.70;625972;226;43810;-72
2022/01/02 02:12:56;;;;;;;;;;;;;;;24.64;67.57;97660.75;625941;226;62088;-72
2022/01/02 02:15:24;;;;;;;;;;;;;;;24.62;68.75;97659.42;625924;226;67230;-72
2022/01/02 02:17:52;;;;;;;;;;;;;;;24.64;68.25;97662.64;625928;226;64773;-72
2022/01/02 02:20:25;;;;;;;;;;;;;;;24.63;68.76;97652.95;625974;226;65582;-72
2022/01/02 02:22:55;;;;;;;;;;;;;;;24.62;67.65;97651.36;625960;226;67727;-72
2022/01/02 02:25:24;;;;;;;;;;;;;;;24.61;67.68;97650.56;625953;226;67059;-68
2022/01/02 02:28:02;;;;;;;;;;;;;;;24.62;68.01;97648.67;625884;226;65546;-68
2022/01/02 02:30:31;;;;;;;;;;;;;;;24.59;68.04;97642.77;625892;226;67326;-69
2022/01/02 02:33:00;;;;;;;;;;;;;;;24.58;67.99;97643.86;625957;226;66881;-69
2022/01/02 02:35:29;;;;;;;;;;;;;;;24.57;67.15;97652.98;625908;226;65149;-68
2022/01/02 02:37:57;;;;;;;;;;;;;;;24.58;67.30;97646.55;625906;226;65869;-68
2022/01/02 02:40:25;;;;;;;;;;;;;;;24.58;68.99;97659.16;625905;226;67519;-68
2022/01/02 02:42:59;;;;;;;;;;;;;;;24.57;67.49;97658.36;625940;226;65064;-69
2022/01/02 02:51:12;;;;;;;;;;;;;;;24.55;68.33;97668.61;625312;226;65765;-67
2022/01/02 02:53:41;;;;;;;;;;;;;;;24.56;68.79;97669.41;624779;227;67894;-67
2022/01/02 02:56:20;;;;;;;;;;;;;;;24.52;67.69;97669.14;624757;227;67324;-67
2022/01/02 02:58:43;;;;;;;;;;;;;;;24.52;68.09;97674.51;624641;226;64932;-71
2022/01/02 03:01:15;;;;;;;;;;;;;;;24.53;67.41;97678.83;624762;227;64489;-72
2022/01/02 03:03:43;;;;;;;;;;;;;;;24.52;68.17;97679.88;624820;227;65659;-71
2022/01/02 03:06:11;;;;;;;;;;;;;;;24.51;68.15;97689.03;624821;227;65802;-71
2022/01/02 03:08:40;;;;;;;;;;;;;;;24.51;67.82;97680.98;624788;227;67239;-72
2022/01/02 03:11:13;;;;;;;;;;;;;;;24.51;67.71;97688.24;624810;227;67018;-68
2022/01/02 03:13:38;;;;;;;;;;;;;;;24.50;66.71;97681.23;624736;226;65086;-68
2022/01/02 03:16:06;;;;;;;;;;;;;;;24.50;68.40;97686.61;624773;227;64472;-67
2022/01/02 03:18:34;;;;;;;;;;;;;;;24.49;70.04;97696.56;624812;227;67038;-68
2022/01/02 03:21:02;;;;;;;;;;;;;;;24.48;68.07;97689.59;624787;227;65646;-68
2022/01/02 03:23:31;;;;;;;;;;;;;;;24.47;67.44;97698.75;624763;227;65375;-67
2022/01/02 03:25:59;;;;;;;;;;;;;;;24.47;67.73;97703.30;624782;227;67578;-72
2022/01/02 03:28:26;;;;;;;;;;;;;;;24.46;68.43;97696.33;624730;227;65075;-71
2022/01/02 03:30:54;;;;;;;;;;;;;;;24.47;68.62;97693.38;624801;227;64581;-72
2022/01/02 03:33:22;;;;;;;;;;;;;;;24.46;67.69;97693.64;624856;227;64827;-71
2022/01/02 03:35:49;;;;;;;;;;;;;;;24.45;68.75;97695.53;624796;227;65247;-72
2022/01/02 03:38:17;;;;;;;;;;;;;;;24.44;67.23;97704.64;624834;227;66850;-72
2022/01/02 03:40:45;;;;;;;;;;;;;;;24.44;69.27;97695.79;624762;227;64336;-71
2022/01/02 03:43:12;;;;;;;;;;;;;;;24.43;68.30;97699.54;624818;227;65734;-71
2022/01/02 03:45:40;;;;;;;;;;;;;;;24.43;69.18;97702.22;624818;227;66798;-71
2022/01/02 03:48:07;;;;;;;;;;;;;;;24.43;68.21;97705.70;624833;227;66857;-71
2022/01/02 03:50:35;;;;;;;;;;;;;;;24.43;67.65;97697.65;625125;226;62871;-71
2022/01/02 03:53:03;;;;;;;;;;;;;;;24.42;67.92;97697.91;625953;226;65524;-71
2022/01/02 03:55:31;;;;;;;;;;;;;;;24.41;67.87;97705.17;625915;226;66986;-71
2022/01/02 03:57:59;;;;;;;;;;;;;;;24.41;68.15;97710.55;626002;226;63043;-71
2022/01/02 04:00:26;;;;;;;;;;;;;;;24.40;68.63;97703.58;625906;226;66943;-71
2022/01/02 04:02:54;;;;;;;;;;;;;;;24.41;69.24;97705.17;625958;226;67151;-72
2022/01/02 04:05:22;;;;;;;;;;;;;;;24.38;67.03;97711.10;625933;226;62508;-71
2022/01/02 04:07:49;;;;;;;;;;;;;;;24.38;69.07;97711.90;625865;226;65922;-71
2022/01/02 04:10:18;;;;;;;;;;;;;;;24.38;68.46;97716.48;625951;226;68160;-71
2022/01/02 04:12:46;;;;;;;;;;;;;;;24.36;68.76;97714.08;625907;226;65708;-71
2022/01/02 04:15:14;;;;;;;;;;;;;;;24.36;68.29;97718.62;625913;226;67231;-71
2022/01/02 04:17:42;;;;;;;;;;;;;;;24.35;68.81;97720.52;625933;226;67053;-71
2022/01/02 04:20:13;;;;;;;;;;;;;;;24.36;68.69;97724.00;625911;226;62502;-71
2022/01/02 04:22:41;;;;;;;;;;;;;;;24.34;68.07;97729.66;625925;226;67373;-71
2022/01/02 04:25:09;;;;;;;;;;;;;;;24.34;69.37;97723.49;625921;226;67045;-71
2022/01/02 04:27:36;;;;;;;;;;;;;;;24.32;67.18;97733.70;625940;226;65048;-71
2022/01/02 04:30:06;;;;;;;;;;;;;;;24.34;68.98;97724.30;625905;226;67725;-71
2022/01/02 04:32:33;;;;;;;;;;;;;;;24.32;67.94;97731.02;625925;226;66840;-71
2022/01/02 04:35:01;;;;;;;;;;;;;;;24.31;69.38;97734.80;625851;226;62659;-71
2022/01/02 04:37:28;;;;;;;;;;;;;;;24.32;68.94;97736.39;625955;226;68065;-71
2022/01/02 04:39:56;;;;;;;;;;;;;;;24.32;68.90;97736.39;625942;226;64474;-71
2022/01/02 04:42:24;;;;;;;;;;;;;;;24.30;68.62;97738.54;625916;226;66113;-71
2022/01/02 04:44:52;;;;;;;;;;;;;;;24.30;68.74;97736.65;625916;226;64583;-71
2022/01/02 04:47:20;;;;;;;;;;;;;;;24.29;68.48;97742.31;625895;226;67045;-72
2022/01/02 04:49:48;;;;;;;;;;;;;;;24.29;69.18;97742.31;625920;226;64959;-71
2022/01/02 04:52:16;;;;;;;;;;;;;;;24.28;69.11;97751.44;625945;226;64286;-71
2022/01/02 04:54:44;;;;;;;;;;;;;;;24.28;69.87;97749.58;625879;226;67193;-71
2022/01/02 04:57:12;;;;;;;;;;;;;;;24.28;69.70;97754.12;625912;226;65654;-71
2022/01/02 04:59:40;;;;;;;;;;;;;;;24.27;68.29;97749.84;625964;226;67724;-71
2022/01/02 05:02:08;;;;;;;;;;;;;;;24.26;69.92;97750.92;625888;226;66869;-71
2022/01/02 05:04:36;;;;;;;;;;;;;;;24.24;69.11;97759.24;625937;226;64986;-71
2022/01/02 05:07:05;;;;;;;;;;;;;;;24.25;69.05;97750.09;625959;226;66931;-71
2022/01/02 05:09:33;;;;;;;;;;;;;;;24.25;70.10;97749.30;625925;226;67149;-71
2022/01/02 05:12:00;;;;;;;;;;;;;;;24.25;68.93;97751.98;625925;226;66033;-71
2022/01/02 05:14:28;;;;;;;;;;;;;;;24.23;70.41;97754.96;625977;226;64737;-71
2022/01/02 05:16:56;;;;;;;;;;;;;;;24.21;69.28;97759.00;625960;226;64160;-71
2022/01/02 05:19:25;;;;;;;;;;;;;;;24.22;70.25;97763.28;625984;225;46557;-72
2022/01/02 05:21:52;;;;;;;;;;;;;;;24.24;69.70;97761.13;625927;226;66838;-72
2022/01/02 05:24:20;;;;;;;;;;;;;;;24.23;68.78;97760.33;625897;226;66826;-72
2022/01/02 05:26:47;;;;;;;;;;;;;;;24.20;68.92;97760.05;625972;226;63802;-72
2022/01/02 05:29:15;;;;;;;;;;;;;;;24.20;69.17;97770.80;625896;226;66751;-72
2022/01/02 05:31:42;;;;;;;;;;;;;;;24.20;67.90;97774.31;625923;226;66596;-72
2022/01/02 05:34:11;;;;;;;;;;;;;;;24.19;67.52;97766.52;625937;226;62420;-72
2022/01/02 05:36:38;;;;;;;;;;;;;;;24.19;68.33;97767.31;625911;226;66767;-72
2022/01/02 05:39:06;;;;;;;;;;;;;;;24.19;69.07;97763.83;625971;226;67228;-72
2022/01/02 05:41:34;;;;;;;;;;;;;;;24.18;68.93;97764.92;625958;226;62733;-72
2022/01/02 05:44:02;;;;;;;;;;;;;;;24.19;69.26;97771.89;625889;226;67092;-72
2022/01/02 05:46:29;;;;;;;;;;;;;;;24.19;68.51;97769.20;625961;226;64532;-72
2022/01/02 05:48:57;;;;;;;;;;;;;;;24.17;69.37;97763.29;625937;226;65642;-72
2022/01/02 05:51:26;;;;;;;;;;;;;;;24.17;69.37;97768.66;625931;226;67609;-72
2022/01/02 05:53:53;;;;;;;;;;;;;;;24.15;68.75;97769.75;625984;226;64535;-72
2022/01/02 05:56:21;;;;;;;;;;;;;;;24.13;69.18;97763.84;625937;226;62817;-72
2022/01/02 05:58:48;;;;;;;;;;;;;;;24.14;69.44;97770.84;625954;226;66728;-72
2022/01/02 06:01:16;;;;;;;;;;;;;;;24.14;69.34;97773.53;625966;226;66583;-72
2022/01/02 06:03:43;;;;;;;;;;;;;;;24.14;70.22;97768.16;625975;226;63009;-72
2022/01/02 06:06:11;;;;;;;;;;;;;;;24.14;69.75;97773.53;626014;226;66753;-72
2022/01/02 06:08:39;;;;;;;;;;;;;;;24.14;69.01;97770.02;625949;226;67147;-72
2022/01/02 06:11:07;;;;;;;;;;;;;;;24.13;68.81;97777.27;625963;226;62756;-68
2022/01/02 06:13:34;;;;;;;;;;;;;;;24.14;69.02;97780.75;625931;226;64402;-68
2022/01/02 06:16:02;;;;;;;;;;;;;;;24.13;68.78;97782.64;625950;226;67249;-68
2022/01/02 06:18:29;;;;;;;;;;;;;;;24.15;69.16;97787.75;626013;226;65838;-68
2022/01/02 06:20:57;;;;;;;;;;;;;;;24.14;69.86;97791.50;625944;226;64423;-72
2022/01/02 06:23:25;;;;;;;;;;;;;;;24.13;69.60;97788.01;625935;226;66768;-72
2022/01/02 06:25:53;;;;;;;;;;;;;;;24.13;70.16;97790.70;625934;226;62492;-72
2022/01/02 06:28:20;;;;;;;;;;;;;;;24.14;68.64;97792.32;625947;226;67305;-72
2022/01/02 06:30:48;;;;;;;;;;;;;;;24.12;69.67;97805.21;625918;226;66674;-73
2022/01/02 06:33:16;;;;;;;;;;;;;;;24.10;69.69;97801.98;625919;226;64966;-72
2022/01/02 06:35:44;;;;;;;;;;;;;;;24.13;68.74;97808.70;625846;226;66752;-72
2022/01/02 06:38:12;;;;;;;;;;;;;;;24.11;68.26;97818.89;625902;226;64434;-73
2022/01/02 06:40:41;;;;;;;;;;;;;;;24.12;68.40;97821.32;625954;226;66072;-73
2022/01/02 06:43:09;;;;;;;;;;;;;;;24.13;68.83;97817.55;625977;226;66829;-72
2022/01/02 06:45:36;;;;;;;;;;;;;;;24.12;69.49;97821.32;625968;226;64887;-73
2022/01/02 06:48:05;;;;;;;;;;;;;;;24.12;69.31;97824.01;625967;226;65132;-72
2022/01/02 06:50:33;;;;;;;;;;;;;;;24.10;69.60;97831.52;625908;226;67346;-72
2022/01/02 06:53:01;;;;;;;;;;;;;;;24.12;70.24;97832.06;625948;226;66753;-68
2022/01/02 06:55:28;;;;;;;;;;;;;;;24.13;70.92;97833.66;626014;226;62939;-68
2022/01/02 06:57:56;;;;;;;;;;;;;;;24.12;70.94;97828.58;625998;226;67184;-69
2022/01/02 07:00:29;;;;;;;;;;;;;;;24.10;71.63;97834.21;625958;226;66753;-68
2022/01/02 07:02:54;;;;;;;;;;;;;;;24.11;71.61;97838.49;625687;225;67172;-69
2022/01/02 07:05:21;;;;;;;;;;;;;;;24.12;72.23;97848.17;625927;224;67274;-68
2022/01/02 07:07:51;;;;;;;;;;;;;;;24.09;71.00;97850.58;625938;226;67073;-69
2022/01/02 07:10:19;;;;;;;;;;;;;;;24.09;70.30;97847.89;625994;226;65459;-68
2022/01/02 07:12:47;;;;;;;;;;;;;;;24.08;70.67;97857.03;625953;226;64551;-69
2022/01/02 07:15:15;;;;;;;;;;;;;;;24.09;71.62;97856.78;625942;226;64612;-69
2022/01/02 07:17:42;;;;;;;;;;;;;;;24.10;71.60;97854.89;625940;226;62813;-69
2022/01/02 07:20:11;;;;;;;;;;;;;;;24.10;73.06;97866.43;625959;226;66730;-68
2022/01/02 07:22:40;;;;;;;;;;;;;;;24.08;73.36;97859.72;626005;226;66639;-68
2022/01/02 07:25:07;;;;;;;;;;;;;;;24.06;72.09;97860.01;625947;226;64668;-69
2022/01/02 07:27:35;;;;;;;;;;;;;;;24.08;72.95;97857.03;625933;226;66712;-69
2022/01/02 07:30:03;;;;;;;;;;;;;;;24.07;71.64;97864.29;625912;226;67486;-69
2022/01/02 07:32:30;;;;;;;;;;;;;;;24.08;73.22;97857.03;625948;226;64973;-69
2022/01/02 07:34:58;;;;;;;;;;;;;;;24.05;71.98;97861.06;626007;226;66724;-69
2022/01/02 07:37:28;;;;;;;;;;;;;;;24.06;71.47;97859.18;625949;226;66490;-68
2022/01/02 07:39:56;;;;;;;;;;;;;;;24.05;71.43;97863.75;625923;226;65129;-68
2022/01/02 07:42:23;;;;;;;;;;;;;;;24.06;72.22;97870.75;625957;226;66857;-68
2022/01/02 07:44:53;;;;;;;;;;;;;;;24.06;71.93;97864.55;625962;226;44860;-68
2022/01/02 07:47:20;;;;;;;;;;;;;;;24.05;72.49;97871.80;625937;226;65030;-68
2022/01/02 07:49:47;;;;;;;;;;;;;;;24.05;72.73;97871.80;625992;226;66691;-68
2022/01/02 07:52:15;;;;;;;;;;;;;;;24.04;72.63;97866.72;626723;226;66752;-68
2022/01/02 07:54:42;;;;;;;;;;;;;;;24.05;71.92;97876.38;626719;226;65055;-68
2022/01/02 07:57:10;;;;;;;;;;;;;;;24.02;71.66;97875.03;626688;226;66478;-68
2022/01/02 07:59:37;;;;;;;;;;;;;;;24.03;73.11;97876.63;626748;226;64213;-72
2022/01/02 08:02:05;;;;;;;;;;;;;;;24.01;71.33;97865.38;626769;226;63007;-72
2022/01/02 08:04:34;;;;;;;;;;;;;;;24.01;71.37;97865.38;626682;225;44544;-72
2022/01/02 08:07:01;;;;;;;;;;;;;;;24.01;71.44;97862.70;626708;226;66837;-72
2022/01/02 08:09:29;;;;;;;;;;;;;;;24.02;72.73;97871.55;626689;226;65093;-72
2022/01/02 08:11:56;;;;;;;;;;;;;;;24.01;72.24;97872.60;626691;226;66534;-72
2022/01/02 08:14:24;;;;;;;;;;;;;;;23.99;72.83;97864.84;626756;226;66815;-72
2022/01/02 08:16:53;;;;;;;;;;;;;;;23.98;72.89;97873.98;626645;226;41910;-72
2022/01/02 08:19:21;;;;;;;;;;;;;;;24.00;72.79;97876.38;626674;226;64783;-72
2022/01/02 08:21:48;;;;;;;;;;;;;;;23.98;72.72;97873.98;626736;226;64556;-72
2022/01/02 08:24:16;;;;;;;;;;;;;;;23.99;72.42;97872.89;626660;226;62844;-72
2022/01/02 08:26:43;;;;;;;;;;;;;;;24.01;73.69;97873.44;626719;226;64609;-72
2022/01/02 08:29:10;;;;;;;;;;;;;;;24.00;73.47;97877.17;626696;226;64363;-72
2022/01/02 08:31:40;;;;;;;;;;;;;;;23.98;72.77;97867.78;626703;226;62977;-72
2022/01/02 08:34:07;;;;;;;;;;;;;;;23.96;72.71;97860.01;626718;226;66914;-72
2022/01/02 08:36:35;;;;;;;;;;;;;;;23.94;71.55;97864.84;626663;226;66770;-72
2022/01/02 08:39:03;;;;;;;;;;;;;;;23.98;73.38;97867.78;626740;226;65333;-72
2022/01/02 08:41:30;;;;;;;;;;;;;;;23.95;72.33;97863.75;626683;226;66522;-72
2022/01/02 08:43:58;;;;;;;;;;;;;;;23.95;73.49;97858.38;626682;226;64437;-72
2022/01/02 08:46:25;;;;;;;;;;;;;;;23.95;73.29;97858.38;626695;226;62635;-73
2022/01/02 08:48:53;;;;;;;;;;;;;;;23.98;72.96;97862.41;626686;226;64589;-73
2022/01/02 08:51:20;;;;;;;;;;;;;;;23.98;73.00;97857.04;625448;226;66766;-73
2022/01/02 08:53:48;;;;;;;;;;;;;;;23.96;71.49;97851.95;624833;227;65195;-73
2022/01/02 08:56:15;;;;;;;;;;;;;;;23.93;71.90;97852.50;624791;227;66895;-73
2022/01/02 08:58:43;;;;;;;;;;;;;;;23.93;73.75;97853.30;624759;227;66611;-73
2022/01/02 09:01:10;;;;;;;;;;;;;;;23.91;72.10;97860.01;624758;227;65311;-73
2022/01/02 09:03:38;;;;;;;;;;;;;;;23.92;72.44;97850.87;624723;227;67025;-73
2022/01/02 09:06:05;;;;;;;;;;;;;;;23.93;72.91;97844.45;624809;227;67945;-73
2022/01/02 09:08:33;;;;;;;;;;;;;;;23.94;73.79;97846.05;624747;227;64845;-73
2022/01/02 09:11:01;;;;;;;;;;;;;;;23.94;73.39;97835.30;624754;227;64847;-73
2022/01/02 09:13:28;;;;;;;;;;;;;;;23.95;73.21;97836.11;624758;227;64795;-73
2022/01/02 09:15:56;;;;;;;;;;;;;;;23.92;73.01;97827.51;624781;227;62710;-73
2022/01/02 09:18:23;;;;;;;;;;;;;;;23.92;72.80;97830.19;624781;227;64825;-73
2022/01/02 09:20:51;;;;;;;;;;;;;;;23.92;72.60;97826.70;624785;227;64785;-74
2022/01/02 09:23:20;;;;;;;;;;;;;;;23.90;73.75;97828.87;624612;226;44891;-73
2022/01/02 09:25:48;;;;;;;;;;;;;;;23.91;73.70;97819.74;624795;227;64586;-73
2022/01/02 09:28:15;;;;;;;;;;;;;;;23.89;72.35;97816.52;624815;227;64752;-73
2022/01/02 09:30:43;;;;;;;;;;;;;;;23.89;72.40;97813.83;624781;227;62838;-73
2022/01/02 09:33:10;;;;;;;;;;;;;;;23.89;72.10;97811.14;624795;227;65129;-73
2022/01/02 09:35:41;;;;;;;;;;;;;;;23.86;71.87;97807.13;624746;226;45578;-73
2022/01/02 09:38:09;;;;;;;;;;;;;;;23.88;72.19;97814.92;624803;227;62644;-73
2022/01/02 09:40:37;;;;;;;;;;;;;;;23.87;73.42;97813.29;624817;227;64830;-74
2022/01/02 09:43:05;;;;;;;;;;;;;;;23.89;73.62;97811.95;624870;227;64891;-73
2022/01/02 09:45:38;;;;;;;;;;;;;;;23.86;72.86;97801.75;624835;227;62759;-73
2022/01/02 09:48:07;;;;;;;;;;;;;;;23.86;73.56;97798.27;624775;226;64931;-73
2022/01/02 09:50:37;;;;;;;;;;;;;;;23.85;73.78;97799.36;625123;226;67010;-73
2022/01/02 09:53:07;;;;;;;;;;;;;;;23.83;73.44;97802.30;625885;226;42589;-73
2022/01/02 09:55:35;;;;;;;;;;;;;;;23.85;72.68;97802.84;625888;226;67294;-73
2022/01/02 09:58:09;;;;;;;;;;;;;;;23.86;73.01;97795.59;625946;226;66878;-73
2022/01/02 10:00:31;;;;;;;;;;;;;;;23.84;72.96;97798.53;625770;226;62908;-73
2022/01/02 10:03:03;;;;;;;;;;;;;;;23.84;72.89;97781.63;625931;226;64833;-73
2022/01/02 10:05:34;;;;;;;;;;;;;;;23.84;72.69;97778.94;625939;226;66980;-73
2022/01/02 10:08:02;;;;;;;;;;;;;;;23.85;74.41;97765.27;625407;226;64917;-73
2022/01/02 10:10:34;;;;;;;;;;;;;;;23.83;73.02;97764.72;625331;226;66856;-73
2022/01/02 10:13:03;;;;;;;;;;;;;;;23.83;75.13;97756.66;626010;226;65420;-73
2022/01/02 10:15:32;;;;;;;;;;;;;;;23.83;73.21;97751.30;625942;226;62753;-73
2022/01/02 10:18:07;;;;;;;;;;;;;;;23.79;72.12;97755.61;625944;226;67140;-73
2022/01/02 10:20:39;;;;;;;;;;;;;;;23.81;73.61;97749.95;625901;226;65101;-73
2022/01/02 10:23:15;;;;;;;;;;;;;;;23.82;73.78;97748.91;625683;226;65981;-73
2022/01/02 10:25:45;;;;;;;;;;;;;;;23.82;73.47;97741.65;625979;226;64537;-73
2022/01/02 10:28:20;;;;;;;;;;;;;;;23.72;72.39;97733.61;625973;226;66905;-73
2022/01/02 10:30:48;;;;;;;;;;;;;;;23.79;73.14;97736.00;625936;226;62871;-73
2022/01/02 10:33:16;;;;;;;;;;;;;;;23.77;72.53;97740.86;625891;226;67063;-73
2022/01/02 10:35:44;;;;;;;;;;;;;;;23.79;74.47;97736.00;625911;226;66894;-73
2022/01/02 10:38:17;;;;;;;;;;;;;;;23.76;72.87;97734.66;625950;226;64874;-73
2022/01/02 10:40:46;;;;;;;;;;;;;;;23.77;74.52;97728.23;625944;226;65521;-73
2022/01/02 10:43:18;;;;;;;;;;;;;;;23.74;73.14;97727.98;625918;226;66842;-73
2022/01/02 10:45:50;;;;;;;;;;;;;;;23.75;73.22;97721.53;624269;226;62876;-72
2022/01/02 10:48:18;;;;;;;;;;;;;;;23.76;74.07;97720.44;625841;225;65111;-68
2022/01/02 10:51:05;;;;;;;;;;;;;;;23.76;73.71;97723.92;625433;226;64921;-68
2022/01/02 10:53:34;;;;;;;;;;;;;;;23.75;74.22;97710.80;624695;226;64962;-69
2022/01/02 10:56:02;;;;;;;;;;;;;;;23.74;73.76;97701.14;624823;227;65011;-68
2022/01/02 10:58:30;;;;;;;;;;;;;;;23.72;73.64;97701.41;624779;227;65686;-69
2022/01/02 11:00:59;;;;;;;;;;;;;;;23.73;73.82;97692.27;624778;227;62600;-69
2022/01/02 11:03:27;;;;;;;;;;;;;;;23.74;73.63;97695.78;624660;226;64832;-69
2022/01/02 11:05:56;;;;;;;;;;;;;;;23.73;73.88;97689.58;624795;227;64803;-69
2022/01/02 11:08:26;;;;;;;;;;;;;;;23.74;74.43;97696.58;624834;227;62758;-69
2022/01/02 11:10:54;;;;;;;;;;;;;;;23.73;73.25;97686.90;624720;227;64744;-69
2022/01/02 11:13:22;;;;;;;;;;;;;;;23.72;74.40;97696.04;624771;227;66865;-69
2022/01/02 11:15:49;;;;;;;;;;;;;;;23.69;73.72;97688.50;624788;227;64854;-69
2022/01/02 11:18:17;;;;;;;;;;;;;;;23.70;73.66;97682.84;624818;227;64831;-69
2022/01/02 11:20:45;;;;;;;;;;;;;;;23.73;73.21;97688.78;624815;227;64569;-69
2022/01/02 11:23:14;;;;;;;;;;;;;;;23.68;72.87;97690.39;624746;227;64821;-69
2022/01/02 11:25:53;;;;;;;;;;;;;;;23.69;75.29;97689.30;624776;227;67059;-69
2022/01/02 11:28:21;;;;;;;;;;;;;;;23.70;73.88;97685.53;624753;227;66621;-69
2022/01/02 11:30:52;;;;;;;;;;;;;;;23.69;75.14;97678.57;624692;226;65182;-69
2022/01/02 11:33:25;;;;;;;;;;;;;;;23.68;73.79;97676.97;624794;227;67122;-69
2022/01/02 11:35:50;;;;;;;;;;;;;;;23.68;76.51;97678.83;624544;226;68114;-68
2022/01/02 11:38:19;;;;;;;;;;;;;;;23.66;76.22;97672.95;624758;227;65094;-69
2022/01/02 11:40:48;;;;;;;;;;;;;;;23.64;73.59;97673.21;624777;227;65053;-68
2022/01/02 11:43:30;;;;;;;;;;;;;;;23.68;75.50;97682.34;624760;227;66995;-69
2022/01/02 11:46:15;;;;;;;;;;;;;;;23.65;74.80;97682.89;612593;226;62933;-69
2022/01/02 11:48:42;;;;;;;;;;;;;;;23.66;76.09;97673.75;624801;227;64992;-68
2022/01/02 11:51:10;;;;;;;;;;;;;;;23.65;76.82;97674.84;625441;226;64581;-68
2022/01/02 11:53:39;;;;;;;;;;;;;;;23.65;77.00;97677.52;625978;226;63031;-68
2022/01/02 11:56:08;;;;;;;;;;;;;;;23.62;75.32;97678.03;625502;226;64524;-68
2022/01/02 11:58:40;;;;;;;;;;;;;;;23.63;74.99;97673.50;625219;226;64718;-68
2022/01/02 12:01:08;;;;;;;;;;;;;;;23.63;77.63;97678.87;625908;226;62919;-68
2022/01/02 12:03:48;;;;;;;;;;;;;;;23.61;74.85;97679.13;625985;226;65882;-68
2022/01/02 12:06:18;;;;;;;;;;;;;;;23.61;74.39;97667.59;625462;226;66766;-68
2022/01/02 12:08:46;;;;;;;;;;;;;;;23.61;74.99;97664.91;625958;226;62552;-68
2022/01/02 12:11:33;;;;;;;;;;;;;;;23.63;75.89;97665.45;625911;226;66870;-68
2022/01/02 12:14:11;;;;;;;;;;;;;;;23.59;73.64;97667.85;625895;226;64671;-68
2022/01/02 12:16:40;;;;;;;;;;;;;;;23.61;76.24;97659.55;625924;226;65181;-69
2022/01/02 12:19:08;;;;;;;;;;;;;;;23.61;75.84;97646.93;625922;226;64883;-72
2022/01/02 12:21:37;;;;;;;;;;;;;;;23.59;76.35;97650.95;625924;226;66954;-72
2022/01/02 12:24:12;;;;;;;;;;;;;;;23.58;74.36;97641.31;625929;226;64842;-72
2022/01/02 12:26:39;;;;;;;;;;;;;;;23.56;75.25;97641.57;625716;226;67199;-72
2022/01/02 12:29:06;;;;;;;;;;;;;;;23.59;76.20;97646.39;625862;225;71419;-72
2022/01/02 12:31:38;;;;;;;;;;;;;;;23.57;75.33;97629.78;625911;226;64877;-72
2022/01/02 12:34:10;;;;;;;;;;;;;;;23.58;76.44;97633.27;625870;226;64942;-72
2022/01/02 12:36:41;;;;;;;;;;;;;;;23.58;75.00;97628.70;625967;226;66916;-72
2022/01/02 12:39:08;;;;;;;;;;;;;;;23.57;76.21;97624.42;625906;226;64786;-72
2022/01/02 12:41:37;;;;;;;;;;;;;;;23.54;74.61;97630.30;625917;226;67276;-72
2022/01/02 12:44:06;;;;;;;;;;;;;;;23.55;76.45;97623.87;625931;226;66939;-72
2022/01/02 12:46:40;;;;;;;;;;;;;;;23.56;76.30;97625.47;625883;226;62680;-73
2022/01/02 12:49:18;;;;;;;;;;;;;;;23.56;75.90;97628.16;625969;226;66873;-72
2022/01/02 12:51:47;;;;;;;;;;;;;;;23.54;76.11;97611.52;625849;225;67301;-72
2022/01/02 12:54:16;;;;;;;;;;;;;;;23.54;75.51;97606.16;625639;226;62718;-72
2022/01/02 12:56:50;;;;;;;;;;;;;;;23.53;75.41;97599.20;625877;226;64925;-72
2022/01/02 12:59:22;;;;;;;;;;;;;;;23.52;74.42;97600.28;625905;226;67123;-72
2022/01/02 13:01:51;;;;;;;;;;;;;;;23.54;76.46;97600.80;625909;226;65069;-72